Time;durP1;ratioP1;P1;durP2;ratioP2;P2;SDS_P1;SDS_P2;PMS_P1;PMS_P2;Temp;Humidity;BMP_temperature;BMP_pressure;BME280_temperature;BME280_humidity;BME280_pressure;Samples;Min_cycle;Max_cycle;Signal;HPM_P1;HPM_P2
2021/11/19 00:02:25;;;;;;;3.47;1.00;;;;;;;15.79;59.59;100689.03;4994122;28;20503;-71
2021/11/19 00:04:51;;;;;;;2.65;0.90;;;;;;;15.91;59.25;100682.66;4996730;28;20049;-71
2021/11/19 00:07:17;;;;;;;3.13;0.80;;;;;;;15.70;60.08;100687.00;4994302;28;20022;-71
2021/11/19 00:09:43;;;;;;;3.58;0.90;;;;;;;15.58;60.25;100689.84;4993656;28;20045;-71
2021/11/19 00:12:11;;;;;;;2.15;0.70;;;;;;;15.66;60.17;100692.94;4995063;28;20017;-71
2021/11/19 00:14:38;;;;;;;3.17;1.45;;;;;;;15.55;60.79;100690.38;4993755;28;20081;-71
2021/11/19 00:17:05;;;;;;;3.80;1.08;;;;;;;15.73;60.29;100697.34;4998438;28;20076;-71
2021/11/19 00:19:35;;;;;;;5.10;1.13;;;;;;;15.85;59.78;100687.16;4980933;28;20100;-71
2021/11/19 00:22:01;;;;;;;4.10;0.98;;;;;;;15.65;60.45;100687.78;5005838;28;20062;-71
2021/11/19 00:24:27;;;;;;;3.30;0.90;;;;;;;15.44;61.40;100690.22;5003298;28;20084;-71
2021/11/19 00:26:54;;;;;;;4.60;1.05;;;;;;;15.91;60.02;100672.63;5000375;28;20050;-71
2021/11/19 00:29:20;;;;;;;3.10;0.80;;;;;;;16.13;59.20;100669.03;5003441;28;20026;-71
2021/11/19 00:31:46;;;;;;;5.35;0.93;;;;;;;16.07;59.36;100665.44;5000505;28;20113;-71
2021/11/19 00:34:12;;;;;;;2.15;0.80;;;;;;;15.82;59.78;100676.81;5001399;28;20034;-71
2021/11/19 00:36:37;;;;;;;3.03;0.93;;;;;;;15.83;59.57;100680.38;5010413;28;20049;-71
2021/11/19 00:39:14;;;;;;;3.38;0.80;;;;;;;15.65;60.08;100685.06;4995939;28;20072;-70
2021/11/19 00:41:42;;;;;;;3.30;1.00;;;;;;;15.37;60.87;100679.53;5011253;28;20030;-71
2021/11/19 00:44:11;;;;;;;3.42;0.80;;;;;;;15.70;60.04;100679.69;5006550;28;20029;-71
2021/11/19 00:46:38;;;;;;;4.20;0.80;;;;;;;15.92;59.58;100673.44;5009254;28;20125;-71
2021/11/19 00:49:05;;;;;;;6.93;1.33;;;;;;;16.13;59.08;100669.03;5003649;28;20423;-72
2021/11/19 00:51:38;;;;;;;3.13;1.33;;;;;;;15.98;59.67;100666.16;5012663;28;20073;-71
2021/11/19 00:54:06;;;;;;;2.80;0.73;;;;;;;16.02;59.13;100672.72;5009710;28;20045;-71
2021/11/19 00:56:39;;;;;;;2.95;0.90;;;;;;;15.99;58.92;100676.75;5007251;28;20122;-71
2021/11/19 00:59:06;;;;;;;4.43;1.20;;;;;;;15.47;59.68;100670.72;5013116;28;20534;-71
2021/11/19 01:01:48;;;;;;;5.03;1.00;;;;;;;15.59;59.49;100678.72;5005047;28;20048;-71
2021/11/19 01:04:15;;;;;;;2.85;0.80;;;;;;;15.87;58.73;100668.75;5006924;28;20088;-71
2021/11/19 01:06:41;;;;;;;4.95;0.77;;;;;;;15.74;59.38;100669.13;5009762;28;20479;-69
2021/11/19 01:09:11;;;;;;;3.33;1.27;;;;;;;15.64;59.77;100672.56;5006133;28;20053;-69
2021/11/19 01:11:38;;;;;;;8.40;1.10;;;;;;;15.86;58.94;100666.28;5006850;28;20038;-72
2021/11/19 01:14:07;;;;;;;3.65;0.80;;;;;;;15.35;59.88;100681.69;5001635;28;20036;-70
2021/11/19 01:16:38;;;;;;;3.25;0.90;;;;;;;15.39;59.95;100679.31;5005120;28;20038;-71
2021/11/19 01:19:10;;;;;;;6.97;0.98;;;;;;;15.57;59.18;100670.03;5004953;28;20472;-71
2021/11/19 01:21:46;;;;;;;4.60;1.10;;;;;;;15.21;59.97;100675.00;5001403;28;20443;-71
2021/11/19 01:24:13;;;;;;;5.80;0.90;;;;;;;15.24;59.92;100668.25;5004475;28;20033;-71
2021/11/19 01:26:41;;;;;;;2.20;0.60;;;;;;;15.54;59.00;100673.25;4999771;28;20045;-71
2021/11/19 01:29:10;;;;;;;3.58;0.63;;;;;;;15.60;58.27;100666.00;5001325;28;20030;-72
2021/11/19 01:31:58;;;;;;;5.22;1.10;;;;;;;15.39;59.20;100659.47;5001280;28;20038;-71
2021/11/19 01:34:25;;;;;;;4.07;0.70;;;;;;;15.37;59.03;100651.59;5000416;28;20053;-70
2021/11/19 01:36:52;;;;;;;1.90;0.52;;;;;;;15.68;58.16;100662.00;5004175;28;20066;-71
2021/11/19 01:39:20;;;;;;;2.97;0.70;;;;;;;15.84;57.63;100652.13;5002243;28;20034;-71
2021/11/19 01:42:00;;;;;;;5.53;0.80;;;;;;;15.47;58.44;100659.88;5010366;28;20044;-70
2021/11/19 01:44:29;;;;;;;3.75;0.80;;;;;;;15.54;58.73;100667.00;4998548;28;20049;-71
2021/11/19 01:46:57;;;;;;;7.72;1.00;;;;;;;15.67;58.51;100658.47;5007830;28;20042;-71
2021/11/19 01:49:24;;;;;;;6.45;1.00;;;;;;;15.47;58.77;100661.75;5007329;28;20088;-71
2021/11/19 01:51:58;;;;;;;3.05;0.98;;;;;;;15.68;58.23;100664.69;5010213;28;20455;-71
2021/11/19 01:54:38;;;;;;;5.07;0.90;;;;;;;15.73;58.21;100662.03;5005766;28;20455;-71
2021/11/19 01:57:06;;;;;;;4.70;0.98;;;;;;;15.25;59.75;100672.63;5011451;28;20038;-71
2021/11/19 01:59:46;;;;;;;8.60;1.20;;;;;;;14.92;60.50;100659.66;5009020;28;20038;-71
2021/11/19 02:02:16;;;;;;;3.67;0.75;;;;;;;14.64;60.58;100669.53;5002218;28;20100;-70
2021/11/19 02:04:58;;;;;;;4.65;0.80;;;;;;;15.17;59.13;100674.69;5007708;28;21452;-70
2021/11/19 02:07:34;;;;;;;3.60;0.80;;;;;;;15.17;59.37;100669.25;4997404;28;20045;-71
2021/11/19 02:10:10;;;;;;;4.38;0.98;;;;;;;15.42;58.51;100678.81;5009003;28;20038;-71
2021/11/19 02:12:44;;;;;;;8.52;0.82;;;;;;;15.69;57.86;100679.91;5000566;28;20042;-69
2021/11/19 02:15:23;;;;;;;4.38;1.02;;;;;;;15.30;58.74;100672.69;5008848;28;20045;-69
2021/11/19 02:17:53;;;;;;;4.22;0.70;;;;;;;15.27;58.58;100667.75;4996455;28;20061;-69
2021/11/19 02:20:25;;;;;;;3.42;0.75;;;;;;;15.01;58.77;100670.94;4997552;28;20061;-69
2021/11/19 02:22:56;;;;;;;3.00;0.90;;;;;;;15.13;58.69;100667.28;4995500;28;20077;-71
2021/11/19 02:25:24;;;;;;;2.70;1.00;;;;;;;14.97;58.74;100668.94;4997760;28;20053;-70
2021/11/19 02:27:59;;;;;;;3.50;0.60;;;;;;;15.40;57.78;100670.09;5005246;28;20045;-70
2021/11/19 02:30:56;;;;;;;3.97;0.90;;;;;;;14.88;58.86;100658.53;4995149;28;20042;-70
2021/11/19 02:33:25;;;;;;;4.28;0.60;;;;;;;15.40;57.84;100664.66;4992034;28;20671;-70
2021/11/19 02:36:04;;;;;;;3.28;0.60;;;;;;;15.08;58.54;100677.00;5010875;28;20125;-71
2021/11/19 02:38:35;;;;;;;4.35;0.80;;;;;;;15.16;58.31;100664.91;4994557;28;20048;-71
2021/11/19 02:41:01;;;;;;;5.15;0.90;;;;;;;15.33;57.81;100658.59;4998950;28;20110;-71
2021/11/19 02:43:36;;;;;;;14.52;1.50;;;;;;;15.22;57.93;100658.47;4996302;28;20140;-71
2021/11/19 02:46:03;;;;;;;2.50;0.90;;;;;;;15.41;57.77;100670.91;5002471;28;20037;-71
2021/11/19 02:48:31;;;;;;;6.45;0.93;;;;;;;15.23;58.37;100664.72;5000350;28;20034;-70
2021/11/19 02:51:00;;;;;;;4.60;1.23;;;;;;;15.59;57.38;100672.50;5004984;28;20053;-69
2021/11/19 02:53:26;;;;;;;2.97;0.50;;;;;;;15.30;57.68;100676.19;5001865;28;20467;-70
2021/11/19 02:55:55;;;;;;;3.88;0.80;;;;;;;15.64;56.93;100673.34;5006478;28;20522;-70
2021/11/19 02:58:33;;;;;;;3.05;0.43;;;;;;;15.39;57.58;100671.16;5006297;28;20036;-70
2021/11/19 03:01:36;;;;;;;3.33;0.60;;;;;;;15.29;57.62;100680.00;5006933;28;20617;-69
2021/11/19 03:04:10;;;;;;;6.15;0.90;;;;;;;15.25;57.82;100669.91;5000909;28;20117;-69
2021/11/19 03:06:45;;;;;;;0.70;0.40;;;;;;;15.39;57.47;100670.34;5007266;28;20038;-70
2021/11/19 03:09:12;;;;;;;4.72;0.80;;;;;;;15.97;55.48;100669.97;5006863;28;20403;-70
2021/11/19 03:11:39;;;;;;;3.72;0.73;;;;;;;15.40;56.96;100678.25;5006630;28;20042;-69
2021/11/19 03:14:06;;;;;;;4.03;0.70;;;;;;;15.62;56.24;100674.69;5007202;28;20491;-69
2021/11/19 03:16:33;;;;;;;5.82;0.63;;;;;;;15.55;56.31;100674.06;4994859;28;20058;-69
2021/11/19 03:18:58;;;;;;;4.72;0.77;;;;;;;15.78;55.64;100678.41;4989662;28;20052;-69
2021/11/19 03:21:24;;;;;;;3.35;0.60;;;;;;;15.63;56.34;100668.19;5009473;28;20034;-69
2021/11/19 03:23:53;;;;;;;5.40;0.77;;;;;;;15.89;55.44;100677.47;5002765;28;20072;-68
2021/11/19 03:26:19;;;;;;;6.70;0.95;;;;;;;15.65;56.17;100676.91;5012811;28;20034;-69
2021/11/19 03:28:45;;;;;;;4.32;0.73;;;;;;;15.61;56.70;100675.78;5001253;28;20037;-69
2021/11/19 03:31:14;;;;;;;3.72;0.77;;;;;;;15.49;56.83;100674.00;4988644;28;20044;-69
2021/11/19 03:33:43;;;;;;;2.60;0.70;;;;;;;15.23;57.63;100678.28;4990695;28;20045;-69
2021/11/19 03:36:10;;;;;;;5.45;0.82;;;;;;;15.13;57.73;100665.41;5002275;28;20276;-69
2021/11/19 03:38:38;;;;;;;3.03;0.47;;;;;;;15.21;57.58;100662.25;5009741;28;20092;-69
2021/11/19 03:41:06;;;;;;;2.53;0.52;;;;;;;15.42;56.79;100658.97;5008246;28;20034;-69
2021/11/19 03:43:40;;;;;;;2.97;0.70;;;;;;;15.58;56.61;100665.41;4992564;28;20057;-70
2021/11/19 03:46:10;;;;;;;5.80;0.90;;;;;;;15.62;56.77;100669.28;5005113;28;20045;-70
2021/11/19 03:48:36;;;;;;;5.18;1.02;;;;;;;15.21;57.63;100662.25;5002999;28;20503;-70
2021/11/19 03:51:43;;;;;;;4.50;0.77;;;;;;;14.98;58.47;100670.59;5001097;28;20531;-69
2021/11/19 03:54:10;;;;;;;2.78;0.70;;;;;;;15.42;57.20;100673.38;4906513;29;20442;-70
2021/11/19 03:56:36;;;;;;;5.22;0.88;;;;;;;15.13;58.16;100680.84;4910079;29;20059;-69
2021/11/19 03:59:04;;;;;;;1.50;0.50;;;;;;;15.04;58.17;100675.03;4910023;29;20370;-69
2021/11/19 04:01:34;;;;;;;7.10;0.82;;;;;;;15.49;57.37;100679.44;4912197;29;20047;-69
2021/11/19 04:04:02;;;;;;;3.10;0.57;;;;;;;15.24;57.93;100674.50;4915133;29;20037;-69
2021/11/19 04:06:28;;;;;;;2.30;0.60;;;;;;;15.62;56.83;100680.13;4912804;29;20560;-69
2021/11/19 04:08:55;;;;;;;4.07;0.85;;;;;;;15.64;56.86;100689.66;4911671;29;20128;-69
2021/11/19 04:11:22;;;;;;;4.32;0.60;;;;;;;15.58;56.83;100689.84;4913439;29;20055;-69
2021/11/19 04:13:48;;;;;;;4.63;0.70;;;;;;;15.58;56.86;100684.44;4908953;29;20450;-69
2021/11/19 04:16:20;;;;;;;3.30;0.73;;;;;;;15.86;56.13;100682.56;4913565;29;20047;-69
2021/11/19 04:18:47;;;;;;;1.85;0.65;;;;;;;15.69;56.42;100679.91;4902906;29;20083;-70
2021/11/19 04:21:14;;;;;;;2.97;0.90;;;;;;;15.34;57.36;100671.09;4913435;29;20079;-69
2021/11/19 04:23:40;;;;;;;8.27;1.00;;;;;;;15.25;58.00;100676.13;4891149;28;20540;-69
2021/11/19 04:26:07;;;;;;;2.20;0.80;;;;;;;15.44;57.40;100687.53;5006374;28;20026;-69
2021/11/19 04:28:33;;;;;;;7.30;0.90;;;;;;;15.25;58.06;100688.91;5003815;28;20475;-69
2021/11/19 04:31:00;;;;;;;5.82;0.80;;;;;;;15.12;58.22;100677.34;5006784;28;20475;-69
2021/11/19 04:33:26;;;;;;;3.60;0.88;;;;;;;15.24;58.11;100684.53;5013171;28;20068;-69
2021/11/19 04:35:52;;;;;;;3.28;0.82;;;;;;;15.34;57.66;100684.69;5006374;28;20117;-69
2021/11/19 04:38:20;;;;;;;5.00;0.80;;;;;;;15.36;57.23;100682.53;5001736;28;20117;-69
2021/11/19 04:40:46;;;;;;;2.72;0.90;;;;;;;15.57;56.94;100685.50;5002232;28;20058;-69
2021/11/19 04:43:12;;;;;;;3.30;0.80;;;;;;;15.64;56.64;100681.50;5005028;28;20038;-69
2021/11/19 04:45:38;;;;;;;1.73;0.60;;;;;;;15.45;56.77;100678.31;5006140;28;20046;-70
2021/11/19 04:48:05;;;;;;;3.90;0.80;;;;;;;15.27;57.85;100684.84;5011936;28;20053;-71
2021/11/19 04:50:38;;;;;;;2.33;1.13;;;;;;;15.33;57.46;100689.28;5003184;28;20062;-71
2021/11/19 04:53:07;;;;;;;5.47;1.08;;;;;;;15.27;58.02;100687.56;5011012;28;20392;-70
2021/11/19 04:55:33;;;;;;;3.70;0.82;;;;;;;15.44;57.89;100686.69;5002443;28;20034;-70
2021/11/19 04:57:59;;;;;;;4.95;1.00;;;;;;;14.89;60.38;100690.00;5006977;28;20033;-70
2021/11/19 05:00:36;;;;;;;2.85;0.80;;;;;;;15.34;58.90;100682.75;5004791;28;20054;-70
2021/11/19 05:03:03;;;;;;;6.07;1.00;;;;;;;15.36;59.47;100694.19;5002119;28;20498;-70
2021/11/19 05:05:29;;;;;;;4.68;1.02;;;;;;;15.26;59.51;100677.78;5003743;28;20547;-70
2021/11/19 05:07:54;;;;;;;4.50;0.93;;;;;;;15.61;58.79;100692.88;5001297;28;20045;-70
2021/11/19 05:10:20;;;;;;;3.90;1.10;;;;;;;15.57;58.81;100690.94;4999436;28;20034;-70
2021/11/19 05:12:54;;;;;;;5.78;1.05;;;;;;;15.60;59.12;100696.66;5008280;28;20098;-70
2021/11/19 05:15:20;;;;;;;2.87;1.10;;;;;;;15.56;58.77;100695.53;5011744;28;20045;-71
2021/11/19 05:17:46;;;;;;;4.75;1.02;;;;;;;15.26;60.09;100694.06;4986386;28;20065;-70
2021/11/19 05:20:15;;;;;;;1.58;0.85;;;;;;;15.27;60.03;100697.59;5002846;28;20068;-70
2021/11/19 05:22:42;;;;;;;2.83;1.08;;;;;;;15.20;59.69;100684.19;5019645;28;20029;-69
2021/11/19 05:25:10;;;;;;;2.42;0.95;;;;;;;15.38;59.33;100699.38;5002419;28;20030;-70
2021/11/19 05:27:36;;;;;;;1.90;0.80;;;;;;;15.16;60.00;100699.34;5009994;28;20044;-69
2021/11/19 05:30:03;;;;;;;2.33;1.17;;;;;;;15.15;59.56;100708.56;5007463;28;20116;-70
2021/11/19 05:32:28;;;;;;;4.88;0.90;;;;;;;15.25;59.37;100705.97;4997280;28;20084;-69
2021/11/19 05:34:54;;;;;;;2.50;0.80;;;;;;;15.16;59.48;100702.06;5010085;28;20057;-69
2021/11/19 05:37:19;;;;;;;2.67;0.80;;;;;;;14.83;60.57;100704.56;4993683;28;20133;-69
2021/11/19 05:39:45;;;;;;;3.58;0.93;;;;;;;15.17;59.59;100706.41;5003407;28;20037;-69
2021/11/19 05:42:11;;;;;;;3.70;0.88;;;;;;;14.96;60.12;100708.00;4989879;28;20037;-69
2021/11/19 05:44:39;;;;;;;4.25;1.15;;;;;;;15.10;59.86;100700.34;5011208;28;20061;-69
2021/11/19 05:47:05;;;;;;;2.20;0.77;;;;;;;15.14;59.93;100715.88;5000568;28;20092;-69
2021/11/19 05:49:31;;;;;;;3.28;1.00;;;;;;;15.29;59.28;100712.56;5010104;28;20046;-70
2021/11/19 05:51:59;;;;;;;4.15;0.95;;;;;;;15.26;59.80;100709.53;5011886;28;20075;-69
2021/11/19 05:54:27;;;;;;;6.22;0.75;;;;;;;14.91;61.33;100716.88;4996490;28;20037;-69
2021/11/19 05:56:53;;;;;;;6.47;1.15;;;;;;;14.83;61.80;100715.41;5013640;28;20080;-69
2021/11/19 05:59:19;;;;;;;9.18;1.30;;;;;;;15.16;61.18;100718.34;5003451;28;20137;-69
2021/11/19 06:01:45;;;;;;;5.10;1.45;;;;;;;15.42;60.36;100721.41;5005456;28;20152;-69
2021/11/19 06:04:11;;;;;;;1.98;0.80;;;;;;;15.58;59.64;100725.16;5012076;28;20434;-69
2021/11/19 06:06:37;;;;;;;2.42;0.85;;;;;;;15.61;59.23;100714.59;4998495;28;20482;-69
2021/11/19 06:09:05;;;;;;;9.02;1.55;;;;;;;15.39;60.96;100730.06;5008004;28;20887;-69
2021/11/19 06:11:40;;;;;;;8.93;1.40;;;;;;;15.48;60.64;100734.81;4996723;28;20084;-69
2021/11/19 06:14:13;;;;;;;7.55;1.40;;;;;;;15.46;60.63;100731.53;4988192;28;20053;-71
2021/11/19 06:16:45;;;;;;;7.55;1.48;;;;;;;15.38;60.83;100726.53;5008085;28;20030;-70
2021/11/19 06:19:19;;;;;;;2.70;1.17;;;;;;;15.71;60.15;100727.50;5016285;28;20038;-70
2021/11/19 06:22:26;;;;;;;4.30;1.38;;;;;;;15.51;60.96;100728.88;5005987;28;20056;-70
2021/11/19 06:24:55;;;;;;;5.85;1.85;;;;;;;15.48;61.08;100737.53;4976577;28;20146;-70
2021/11/19 06:27:25;;;;;;;6.05;1.17;;;;;;;15.37;61.30;100738.47;5002781;28;20475;-69
2021/11/19 06:29:57;;;;;;;4.75;2.03;;;;;;;15.18;62.05;100736.03;5010120;28;20026;-69
2021/11/19 06:32:24;;;;;;;4.10;1.38;;;;;;;15.39;61.31;100727.34;4989435;28;20113;-70
2021/11/19 06:34:49;;;;;;;2.15;1.10;;;;;;;15.58;60.52;100730.59;4971850;28;20074;-68
2021/11/19 06:37:15;;;;;;;5.00;1.65;;;;;;;15.37;61.28;100720.25;4993426;28;20507;-68
2021/11/19 06:39:41;;;;;;;2.60;1.40;;;;;;;15.28;61.89;100738.06;5003000;28;20652;-68
2021/11/19 06:42:12;;;;;;;4.07;1.13;;;;;;;15.57;60.98;100742.53;5010734;28;20038;-68
2021/11/19 06:44:39;;;;;;;4.00;1.17;;;;;;;15.85;59.95;100746.13;5014401;28;20037;-68
2021/11/19 06:47:06;;;;;;;2.92;1.00;;;;;;;15.69;60.48;100755.97;4996769;28;20505;-68
2021/11/19 06:49:32;;;;;;;3.70;1.05;;;;;;;15.81;60.26;100759.38;4995897;28;20165;-68
2021/11/19 06:51:59;;;;;;;4.68;1.30;;;;;;;15.68;60.79;100757.03;4992721;28;20499;-68
2021/11/19 06:54:24;;;;;;;5.53;1.48;;;;;;;15.56;61.23;100773.47;5001893;28;20484;-68
2021/11/19 06:56:51;;;;;;;5.13;1.02;;;;;;;15.68;60.86;100774.16;5002302;28;20038;-68
2021/11/19 06:59:19;;;;;;;2.60;1.08;;;;;;;15.88;59.82;100764.66;5009929;28;20033;-69
2021/11/19 07:01:45;;;;;;;3.47;1.10;;;;;;;15.60;60.75;100764.53;5000713;28;20029;-69
2021/11/19 07:04:12;;;;;;;4.28;1.52;;;;;;;15.07;62.31;100755.94;5000283;28;20601;-68
2021/11/19 07:06:42;;;;;;;3.75;1.45;;;;;;;15.35;61.44;100768.56;5002838;28;20048;-69
2021/11/19 07:09:11;;;;;;;3.30;1.10;;;;;;;15.43;61.24;100774.63;5003219;28;20034;-67
2021/11/19 07:11:38;;;;;;;7.38;1.48;;;;;;;15.55;60.85;100766.38;5006415;28;20368;-69
2021/11/19 07:14:03;;;;;;;7.03;1.50;;;;;;;15.43;60.90;100780.91;5004443;28;20629;-70
2021/11/19 07:16:31;;;;;;;2.05;1.23;;;;;;;15.50;60.93;100780.69;4990662;28;20040;-71
2021/11/19 07:18:57;;;;;;;8.05;1.50;;;;;;;15.44;61.34;100781.69;5002704;28;20393;-71
2021/11/19 07:21:25;;;;;;;6.80;1.42;;;;;;;15.37;61.30;100787.31;5001004;28;20030;-73
2021/11/19 07:23:51;;;;;;;5.07;1.42;;;;;;;15.29;61.42;100785.84;5001723;28;20124;-73
2021/11/19 07:26:17;;;;;;;3.08;1.30;;;;;;;15.50;61.05;100797.81;4994984;28;20163;-72
2021/11/19 07:28:44;;;;;;;5.60;1.40;;;;;;;15.34;61.13;100787.81;4993150;28;20061;-72
2021/11/19 07:31:12;;;;;;;9.25;1.50;;;;;;;15.35;61.06;100787.56;5002093;28;20029;-72
2021/11/19 07:33:38;;;;;;;3.20;1.45;;;;;;;15.31;61.49;100793.75;5006799;28;20026;-73
2021/11/19 07:36:07;;;;;;;1.92;1.30;;;;;;;15.61;60.33;100796.06;5001752;28;20487;-70
2021/11/19 07:38:32;;;;;;;5.22;1.45;;;;;;;15.44;60.75;100798.00;4995477;28;20099;-72
2021/11/19 07:40:58;;;;;;;5.00;1.30;;;;;;;15.56;60.67;100801.41;5008020;28;20116;-73
2021/11/19 07:43:30;;;;;;;8.73;1.30;;;;;;;15.50;60.97;100797.81;5005031;28;20045;-73
2021/11/19 07:45:57;;;;;;;6.57;1.75;;;;;;;15.14;61.93;100807.31;5001241;28;20049;-73
2021/11/19 07:48:27;;;;;;;10.05;1.52;;;;;;;15.24;61.62;100799.31;4999220;28;20037;-72
2021/11/19 07:50:55;;;;;;;2.47;1.20;;;;;;;15.04;62.16;100810.69;5001969;28;20112;-72
2021/11/19 07:53:22;;;;;;;4.30;1.30;;;;;;;14.76;63.33;100810.50;4998432;28;20088;-72
2021/11/19 07:55:50;;;;;;;5.57;1.40;;;;;;;14.76;64.09;100815.06;4975273;28;20137;-72
2021/11/19 07:58:16;;;;;;;5.80;1.50;;;;;;;15.03;63.02;100815.28;5001967;28;20136;-73
2021/11/19 08:00:44;;;;;;;7.75;1.20;;;;;;;15.21;62.64;100814.22;5006020;28;20042;-72
2021/11/19 08:03:13;;;;;;;10.52;1.55;;;;;;;15.22;62.61;100820.47;4990602;28;20088;-74
2021/11/19 08:05:40;;;;;;;7.07;1.83;;;;;;;15.35;61.97;100822.03;4987637;28;20094;-73
2021/11/19 08:08:06;;;;;;;5.07;1.50;;;;;;;15.05;63.00;100821.28;5009721;28;20048;-73
2021/11/19 08:10:33;;;;;;;4.07;1.55;;;;;;;15.11;63.02;100830.34;5002404;28;20033;-73
2021/11/19 08:12:59;;;;;;;3.28;1.45;;;;;;;15.48;61.83;100837.97;4997846;28;20030;-72
2021/11/19 08:15:27;;;;;;;4.97;1.75;;;;;;;15.46;61.89;100840.13;5004975;28;20046;-74
2021/11/19 08:17:55;;;;;;;4.50;1.42;;;;;;;15.46;62.15;100836.56;5007384;28;20037;-73
2021/11/19 08:20:25;;;;;;;6.57;1.83;;;;;;;15.47;62.25;100839.03;4999563;28;20403;-73
2021/11/19 08:22:51;;;;;;;6.15;1.67;;;;;;;15.57;61.89;100838.34;4998718;28;20064;-73
2021/11/19 08:25:19;;;;;;;2.78;1.48;;;;;;;15.72;61.33;100839.66;5003584;28;20061;-73
2021/11/19 08:27:50;;;;;;;7.05;1.52;;;;;;;15.57;61.75;100834.84;4985171;28;20399;-74
2021/11/19 08:30:20;;;;;;;1.88;1.40;;;;;;;15.43;62.29;100832.47;5001652;28;20088;-73
2021/11/19 08:32:48;;;;;;;5.20;1.92;;;;;;;15.47;62.24;100840.91;5002075;28;20029;-74
2021/11/19 08:35:14;;;;;;;4.43;1.85;;;;;;;15.50;61.84;100848.56;5004466;28;20492;-74
2021/11/19 08:37:41;;;;;;;5.55;1.58;;;;;;;15.69;61.15;100857.28;5000942;28;20037;-74
2021/11/19 08:40:11;;;;;;;3.33;1.75;;;;;;;15.72;61.05;100853.22;5008092;28;20501;-74
2021/11/19 08:42:38;;;;;;;3.10;1.58;;;;;;;15.88;60.66;100865.19;4982337;28;20396;-74
2021/11/19 08:45:05;;;;;;;2.30;1.30;;;;;;;15.66;61.33;100858.59;5009690;28;20038;-73
2021/11/19 08:47:31;;;;;;;4.63;1.63;;;;;;;15.50;61.66;100862.16;5003773;28;20034;-73
2021/11/19 08:50:00;;;;;;;9.18;2.05;;;;;;;15.66;61.19;100864.03;5008411;28;20048;-74
2021/11/19 08:52:26;;;;;;;4.38;1.55;;;;;;;15.57;61.51;100867.41;5011087;28;20502;-72
2021/11/19 08:54:51;;;;;;;2.58;1.27;;;;;;;15.91;60.68;100870.09;5005515;28;20118;-74
2021/11/19 08:57:25;;;;;;;2.35;1.15;;;;;;;15.92;60.41;100872.59;5006357;28;20042;-74
2021/11/19 08:59:52;;;;;;;7.53;1.60;;;;;;;16.09;60.04;100871.72;5009703;28;20069;-75
2021/11/19 09:02:21;;;;;;;6.13;1.85;;;;;;;16.09;59.80;100869.81;5001729;28;20038;-74
2021/11/19 09:04:47;;;;;;;4.18;1.92;;;;;;;15.77;60.32;100880.47;5009556;28;20124;-74
2021/11/19 09:07:14;;;;;;;5.15;2.20;;;;;;;15.97;59.78;100871.00;5004728;28;20080;-73
2021/11/19 09:09:41;;;;;;;8.48;2.22;;;;;;;16.32;58.76;100869.81;4994111;28;20092;-75
2021/11/19 09:12:07;;;;;;;7.57;2.47;;;;;;;16.60;57.75;100879.66;4998072;28;20092;-72
2021/11/19 09:14:33;;;;;;;4.03;2.00;;;;;;;16.54;57.64;100876.06;5005298;28;20073;-74
2021/11/19 09:17:21;;;;;;;2.90;1.77;;;;;;;16.56;57.62;100873.06;5011698;28;20398;-74
2021/11/19 09:20:12;;;;;;;5.35;1.80;;;;;;;16.33;58.04;100863.31;4985665;28;20633;-74
2021/11/19 09:22:43;;;;;;;2.30;1.45;;;;;;;16.32;58.29;100875.25;5006243;28;20068;-74
2021/11/19 09:25:13;;;;;;;3.28;1.50;;;;;;;16.26;57.74;100870.84;5002898;28;20034;-73
2021/11/19 09:27:40;;;;;;;3.55;1.20;;;;;;;16.39;57.24;100873.19;5009421;28;20025;-74
2021/11/19 09:30:31;;;;;;;2.28;1.10;;;;;;;16.38;57.44;100885.13;5008933;28;20037;-74
2021/11/19 09:32:58;;;;;;;2.15;0.95;;;;;;;16.48;56.73;100881.69;5009105;28;20042;-75
2021/11/19 09:35:28;;;;;;;3.28;1.08;;;;;;;16.72;56.44;100884.97;5002294;28;20092;-74
2021/11/19 09:37:54;;;;;;;5.80;0.80;;;;;;;16.56;56.35;100880.44;5005663;28;20107;-74
2021/11/19 09:40:27;;;;;;;2.33;0.90;;;;;;;16.62;56.67;100888.38;5006260;28;20034;-74
2021/11/19 09:43:35;;;;;;;1.77;1.03;;;;;;;16.74;55.99;100879.25;5001667;28;20057;-74
2021/11/19 09:46:25;;;;;;;3.50;0.45;;;;;;;16.20;56.81;100880.81;5004277;28;20275;-74
2021/11/19 09:48:57;;;;;;;3.90;0.68;;;;;;;16.56;56.46;100883.94;4997934;28;20053;-75
2021/11/19 09:52:00;;;;;;;3.10;0.63;;;;;;;16.59;56.30;100878.00;4994083;28;20157;-73
2021/11/19 09:54:40;;;;;;;2.17;0.60;;;;;;;16.52;56.41;100874.66;4991224;28;20034;-74
2021/11/19 09:57:51;;;;;;;1.60;0.60;;;;;;;16.41;56.71;100875.63;5008953;28;20048;-73
2021/11/19 10:00:54;;;;;;;4.05;0.80;;;;;;;16.15;57.56;100869.88;4964438;28;20069;-73
2021/11/19 10:03:44;;;;;;;1.00;0.73;;;;;;;16.16;57.30;100869.63;5003790;28;20464;-74
2021/11/19 10:06:12;;;;;;;1.73;0.63;;;;;;;16.82;55.78;100868.75;5008074;28;20380;-74
2021/11/19 10:08:49;;;;;;;2.65;0.70;;;;;;;17.03;55.22;100870.88;5009379;28;20534;-74
2021/11/19 10:11:20;;;;;;;4.28;0.68;;;;;;;16.77;55.72;100870.56;4996788;28;20030;-74
2021/11/19 10:14:23;;;;;;;3.83;0.60;;;;;;;16.89;55.34;100871.25;4996846;28;20026;-74
2021/11/19 10:17:02;;;;;;;1.13;0.50;;;;;;;17.46;53.97;100873.66;4993890;28;20138;-73
2021/11/19 10:19:39;;;;;;;1.58;0.60;;;;;;;17.65;53.67;100887.69;4995813;28;20317;-73
2021/11/19 10:22:44;;;;;;;2.65;0.70;;;;;;;17.32;54.03;100876.03;5003909;28;20080;-68
2021/11/19 10:25:27;;;;;;;10.73;0.60;;;;;;;17.37;54.03;100879.59;5001886;28;20030;-72
2021/11/19 10:27:55;;;;;;;1.38;0.63;;;;;;;17.56;53.30;100873.72;4998439;28;20036;-73
2021/11/19 10:30:41;;;;;;;1.27;0.50;;;;;;;17.68;52.91;100882.56;5001353;28;20128;-72
2021/11/19 10:33:10;;;;;;;3.90;0.68;;;;;;;17.77;52.81;100874.69;5007963;28;20099;-73
2021/11/19 10:35:50;;;;;;;0.93;0.40;;;;;;;17.70;52.76;100880.41;5006980;28;20149;-72
2021/11/19 10:38:34;;;;;;;0.95;0.43;;;;;;;17.60;52.92;100880.28;5007262;28;20042;-73
2021/11/19 10:40:59;;;;;;;;;;;;;;;17.41;52.65;100885.34;4996561;28;20032;-72
2021/11/19 10:43:50;;;;;;;1.08;0.52;;;;;;;16.88;54.35;100888.66;4994374;28;19917;-72
2021/11/19 10:46:57;;;;;;;5.07;0.60;;;;;;;17.10;53.98;100885.09;4993930;28;20033;-72
2021/11/19 10:50:00;;;;;;;3.67;0.60;;;;;;;16.63;54.68;100878.34;4998999;28;20045;-72
2021/11/19 10:53:03;;;;;;;1.38;0.52;;;;;;;16.87;54.39;100887.03;5005963;28;20050;-72
2021/11/19 10:56:07;;;;;;;0.80;0.43;;;;;;;16.86;54.46;100881.84;4971832;28;20423;-71
2021/11/19 10:58:42;;;;;;;1.80;0.65;;;;;;;16.85;54.22;100891.06;4993755;28;20074;-72
2021/11/19 11:01:14;;;;;;;0.93;0.50;;;;;;;16.72;54.26;100887.69;5019882;28;20099;-72
2021/11/19 11:04:03;;;;;;;1.45;0.55;;;;;;;16.72;54.51;100884.97;4999856;28;20046;-73
2021/11/19 11:06:40;;;;;;;3.95;0.52;;;;;;;16.88;54.41;100880.50;4980550;28;20472;-74
2021/11/19 11:09:31;;;;;;;1.15;0.45;;;;;;;17.00;54.00;100882.28;5005717;28;20037;-72
2021/11/19 11:12:08;;;;;;;3.42;0.75;;;;;;;16.64;53.84;100883.50;5004936;28;20034;-72
2021/11/19 11:14:34;;;;;;;2.00;0.60;;;;;;;16.63;54.56;100886.50;4987635;28;20049;-74
2021/11/19 11:17:29;;;;;;;1.58;0.50;;;;;;;16.71;54.50;100879.75;5005879;28;20627;-72
2021/11/19 11:19:59;;;;;;;1.33;1.10;;;;;;;16.46;54.08;100886.56;4997826;28;20030;-72
2021/11/19 11:22:35;;;;;;;3.90;1.20;;;;;;;16.52;54.32;100885.53;5005129;28;20068;-72
2021/11/19 11:25:10;;;;;;;7.03;0.82;;;;;;;16.67;54.32;100884.91;4982621;28;20088;-73
2021/11/19 11:28:03;;;;;;;2.42;0.90;;;;;;;16.36;54.49;100877.22;5007594;28;20038;-73
2021/11/19 11:31:11;;;;;;;2.35;1.20;;;;;;;16.24;54.82;100884.66;5002029;28;20677;-72
2021/11/19 11:34:02;;;;;;;0.68;0.60;;;;;;;16.51;54.46;100889.34;4996644;28;20076;-72
2021/11/19 11:36:38;;;;;;;0.95;0.60;;;;;;;16.61;54.42;100896.81;4995023;28;20046;-73
2021/11/19 11:39:04;;;;;;;0.93;0.60;;;;;;;16.33;55.32;100882.34;4998028;28;20620;-73
2021/11/19 11:41:40;;;;;;;4.22;0.82;;;;;;;16.26;55.40;100877.09;5001974;28;20038;-73
2021/11/19 11:44:12;;;;;;;0.85;0.60;;;;;;;16.26;55.64;100874.38;4997249;28;20103;-72
2021/11/19 11:47:12;;;;;;;2.67;0.55;;;;;;;16.45;55.32;100871.31;4990518;28;20026;-72